createdAt,value
2023-01-21T00:01:20.681Z,1.60
2023-01-21T00:03:48.986Z,1.60
2023-01-21T00:06:18.629Z,1.60
2023-01-21T00:08:46.994Z,1.50
2023-01-21T00:11:16.572Z,1.50
2023-01-21T00:13:45.943Z,1.60
2023-01-21T00:16:14.919Z,1.60
2023-01-21T00:18:43.351Z,1.60
2023-01-21T00:21:11.553Z,2.90
2023-01-21T00:23:41.374Z,1.60
2023-01-21T00:26:12.622Z,1.60
2023-01-21T00:28:43.663Z,1.60
2023-01-21T00:31:13.334Z,1.70
2023-01-21T00:33:41.760Z,1.70
2023-01-21T00:36:12.177Z,1.60
2023-01-21T00:38:42.171Z,1.70
2023-01-21T00:41:12.275Z,1.70
2023-01-21T00:43:40.880Z,1.70
2023-01-21T00:46:09.777Z,1.80
2023-01-21T00:48:38.039Z,1.70
2023-01-21T00:51:06.618Z,1.80
2023-01-21T00:53:36.911Z,1.70
2023-01-21T00:56:08.529Z,1.70
2023-01-21T00:58:36.920Z,1.80
2023-01-21T01:01:06.946Z,1.80
2023-01-21T01:03:35.997Z,1.90
2023-01-21T01:06:05.238Z,1.80
2023-01-21T01:08:33.957Z,1.80
2023-01-21T01:11:02.753Z,1.70
2023-01-21T01:13:32.735Z,1.80
2023-01-21T01:16:01.707Z,1.70
2023-01-21T01:18:32.597Z,1.30
2023-01-21T01:21:02.077Z,1.00
2023-01-21T01:23:30.673Z,0.70
2023-01-21T01:26:00.781Z,0.80
2023-01-21T01:28:29.337Z,0.70
2023-01-21T01:30:59.816Z,0.80
2023-01-21T01:33:28.623Z,0.70
2023-01-21T01:36:01.738Z,0.80
2023-01-21T01:38:30.262Z,0.80
2023-01-21T01:40:58.540Z,0.60
2023-01-21T01:43:28.869Z,0.60
2023-01-21T01:45:58.416Z,0.60
2023-01-21T01:48:29.811Z,0.60
2023-01-21T01:51:00.262Z,0.60
2023-01-21T01:53:30.196Z,0.60
2023-01-21T01:55:59.006Z,0.70
2023-01-21T01:58:28.140Z,0.90
2023-01-21T02:00:56.287Z,1.00
2023-01-21T02:03:46.348Z,1.00
2023-01-21T02:06:16.713Z,0.90
2023-01-21T02:08:46.640Z,0.90
2023-01-21T02:11:16.074Z,0.90
2023-01-21T02:13:47.658Z,0.90
2023-01-21T02:16:46.300Z,0.90
2023-01-21T02:22:17.364Z,0.90
2023-01-21T02:25:15.293Z,0.90
2023-01-21T02:27:56.258Z,0.90
2023-01-21T02:30:58.215Z,0.90
2023-01-21T02:33:50.218Z,0.90
2023-01-21T02:36:33.330Z,0.90
2023-01-21T02:39:10.614Z,0.80
2023-01-21T02:41:54.951Z,0.80
2023-01-21T02:44:32.519Z,0.80
2023-01-21T02:47:07.857Z,0.80
2023-01-21T02:49:41.479Z,0.80
2023-01-21T02:52:17.655Z,0.80
2023-01-21T02:54:53.347Z,0.80
2023-01-21T02:57:31.272Z,0.80
2023-01-21T03:00:03.284Z,0.80
2023-01-21T03:02:55.811Z,0.70
2023-01-21T03:05:35.012Z,0.70
2023-01-21T03:08:09.456Z,0.70
2023-01-21T03:10:42.175Z,0.70
2023-01-21T03:13:39.295Z,0.70
2023-01-21T03:16:27.602Z,0.70
2023-01-21T03:18:57.433Z,0.60
2023-01-21T03:21:28.884Z,0.60
2023-01-21T03:23:58.985Z,0.60
2023-01-21T03:26:32.279Z,0.60
2023-01-21T03:29:06.919Z,0.60
2023-01-21T03:31:38.319Z,0.50
2023-01-21T03:34:11.088Z,0.50
2023-01-21T03:36:46.367Z,0.50
2023-01-21T03:39:19.319Z,0.50
2023-01-21T03:41:47.695Z,0.50
2023-01-21T03:44:15.871Z,0.50
2023-01-21T03:46:50.649Z,0.50
2023-01-21T03:49:23.833Z,0.50
2023-01-21T03:51:57.333Z,0.50
2023-01-21T03:54:25.722Z,0.50
2023-01-21T03:56:53.845Z,0.50
2023-01-21T03:59:22.073Z,0.50
2023-01-21T04:01:50.239Z,0.50
2023-01-21T04:04:18.455Z,0.50
2023-01-21T04:06:46.686Z,0.50
2023-01-21T04:09:16.256Z,0.50
2023-01-21T04:11:44.406Z,0.50
2023-01-21T04:14:12.779Z,0.50
2023-01-21T04:16:40.945Z,0.50
2023-01-21T04:19:09.207Z,0.50
2023-01-21T04:21:37.424Z,0.50
2023-01-21T04:24:06.170Z,0.50
2023-01-21T04:26:35.652Z,0.50
2023-01-21T04:29:04.334Z,0.50
2023-01-21T04:31:32.501Z,0.60
2023-01-21T04:34:00.770Z,0.50
2023-01-21T04:36:28.950Z,0.60
2023-01-21T04:38:57.194Z,0.60
2023-01-21T04:41:25.614Z,0.60
2023-01-21T04:43:55.430Z,0.60
2023-01-21T04:46:23.569Z,0.60
2023-01-21T04:48:51.866Z,0.60
2023-01-21T04:51:20.108Z,0.60
2023-01-21T04:53:48.312Z,0.70
2023-01-21T04:56:16.436Z,0.70
2023-01-21T04:58:44.663Z,0.70
2023-01-21T05:01:14.165Z,0.70
2023-01-21T05:03:42.387Z,0.70
2023-01-21T05:06:10.565Z,0.70
2023-01-21T05:08:38.778Z,0.70
2023-01-21T05:11:09.075Z,0.70
2023-01-21T05:13:37.344Z,0.70
2023-01-21T05:16:08.444Z,0.70
2023-01-21T05:18:38.353Z,0.70
2023-01-21T05:21:07.123Z,0.70
2023-01-21T05:23:35.296Z,0.70
2023-01-21T05:26:03.485Z,0.70
2023-01-21T05:28:31.722Z,0.70
2023-01-21T05:31:02.388Z,0.80
2023-01-21T05:33:32.298Z,0.70
2023-01-21T05:36:03.160Z,0.70
2023-01-21T05:38:31.597Z,0.80
2023-01-21T05:41:00.683Z,0.70
2023-01-21T05:43:29.370Z,0.80
2023-01-21T05:45:57.836Z,0.80
2023-01-21T05:48:26.232Z,0.80
2023-01-21T05:50:54.981Z,0.70
2023-01-21T05:53:25.917Z,0.80
2023-01-21T05:55:54.306Z,0.80
2023-01-21T05:58:23.731Z,0.70
2023-01-21T06:00:52.045Z,0.70
2023-01-21T06:03:20.396Z,0.70
2023-01-21T06:05:51.053Z,0.70
2023-01-21T06:08:19.823Z,0.70
2023-01-21T06:10:49.415Z,0.70
2023-01-21T06:13:17.940Z,0.70
2023-01-21T06:15:46.080Z,0.70
2023-01-21T06:18:14.391Z,0.70
2023-01-21T06:20:42.532Z,0.70
2023-01-21T06:23:10.871Z,0.70
2023-01-21T06:25:39.086Z,0.70
2023-01-21T06:28:10.046Z,0.70
2023-01-21T06:30:38.620Z,0.70
2023-01-21T06:33:06.821Z,0.70
2023-01-21T06:35:35.951Z,0.70
2023-01-21T06:38:04.173Z,0.70
2023-01-21T06:40:32.412Z,0.70
2023-01-21T06:43:00.559Z,0.70
2023-01-21T06:45:30.128Z,0.70
2023-01-21T06:47:58.590Z,0.70
2023-01-21T06:50:26.874Z,0.70
2023-01-21T06:52:55.014Z,0.70
2023-01-21T06:55:23.259Z,0.70
2023-01-21T06:57:51.381Z,0.60
2023-01-21T07:00:20.402Z,0.60
2023-01-21T07:02:49.962Z,0.60
2023-01-21T07:05:19.764Z,0.60
2023-01-21T07:07:47.886Z,0.60
2023-01-21T07:10:16.556Z,0.60
2023-01-21T07:12:44.814Z,0.60
2023-01-21T07:15:13.049Z,0.60
2023-01-21T07:17:41.211Z,0.50
2023-01-21T07:20:13.263Z,0.60
2023-01-21T07:22:41.577Z,0.60
2023-01-21T07:25:10.534Z,0.60
2023-01-21T07:27:38.924Z,0.60
2023-01-21T07:30:08.442Z,0.60
2023-01-21T07:32:36.670Z,0.60
2023-01-21T07:35:05.149Z,0.60
2023-01-21T07:37:34.703Z,0.60
2023-01-21T07:40:02.926Z,0.60
2023-01-21T07:42:31.201Z,0.60
2023-01-21T07:45:02.375Z,0.60
2023-01-21T07:47:30.635Z,0.60
2023-01-21T07:49:58.840Z,0.60
2023-01-21T07:52:27.077Z,0.60
2023-01-21T07:54:56.627Z,0.60
2023-01-21T07:57:24.800Z,0.60
2023-01-21T07:59:52.920Z,0.60
2023-01-21T08:02:21.356Z,0.60
2023-01-21T08:04:49.542Z,0.70
2023-01-21T08:07:17.783Z,0.80
2023-01-21T08:09:45.981Z,0.90
2023-01-21T08:12:15.660Z,0.80
2023-01-21T08:14:43.860Z,0.90
2023-01-21T08:17:12.137Z,1.00
2023-01-21T08:19:40.329Z,1.30
2023-01-21T08:22:08.591Z,1.80
2023-01-21T08:24:36.779Z,2.20
2023-01-21T08:27:05.065Z,2.20
2023-01-21T08:29:34.554Z,2.30
2023-01-21T08:32:02.855Z,2.30
2023-01-21T08:34:30.985Z,2.20
2023-01-21T08:36:59.160Z,2.20
2023-01-21T08:39:27.339Z,2.20
2023-01-21T08:41:55.633Z,2.00
2023-01-21T08:44:23.932Z,1.90
2023-01-21T08:46:53.589Z,2.20
2023-01-21T08:49:22.786Z,1.90
2023-01-21T08:51:51.436Z,2.00
2023-01-21T08:54:19.701Z,1.80
2023-01-21T08:56:47.909Z,1.90
2023-01-21T08:59:16.993Z,1.70
2023-01-21T09:01:45.385Z,1.90
2023-01-21T09:04:14.929Z,1.70
2023-01-21T09:06:43.147Z,1.80
2023-01-21T09:09:12.310Z,1.60
2023-01-21T09:11:40.632Z,1.70
2023-01-21T09:14:08.798Z,2.10
2023-01-21T09:16:37.394Z,1.50
2023-01-21T09:19:05.926Z,1.60
2023-01-21T09:21:35.861Z,1.60
2023-01-21T09:24:04.139Z,1.70
2023-01-21T09:26:32.330Z,1.60
2023-01-21T09:29:02.204Z,1.60
2023-01-21T09:31:31.728Z,1.70
2023-01-21T09:34:01.728Z,1.70
2023-01-21T09:36:31.663Z,1.60
2023-01-21T09:39:01.610Z,1.60
2023-01-21T09:41:34.653Z,1.60
2023-01-21T09:44:08.657Z,1.80
2023-01-21T09:46:42.608Z,1.70
2023-01-21T09:49:17.839Z,1.80
2023-01-21T09:51:53.637Z,1.70
2023-01-21T09:54:27.947Z,1.70
2023-01-21T09:57:23.398Z,1.80
2023-01-21T10:00:24.932Z,1.80
2023-01-21T10:03:00.485Z,2.00
2023-01-21T10:05:59.394Z,2.00
2023-01-21T10:08:38.468Z,2.10
2023-01-21T10:11:22.291Z,2.20
2023-01-21T10:14:17.894Z,2.20
2023-01-21T10:16:53.923Z,2.20
2023-01-21T10:19:25.639Z,2.10
2023-01-21T10:21:57.112Z,2.20
2023-01-21T10:24:28.197Z,2.20
2023-01-21T10:26:58.761Z,2.30
2023-01-21T10:29:28.061Z,2.20
2023-01-21T10:32:00.618Z,2.20
2023-01-21T10:34:32.312Z,2.00
2023-01-21T10:37:13.471Z,2.00
2023-01-21T10:39:50.176Z,2.20
2023-01-21T10:42:39.042Z,2.10
2023-01-21T10:45:17.101Z,2.10
2023-01-21T10:47:51.885Z,2.30
2023-01-21T10:50:39.396Z,2.30
2023-01-21T10:53:14.594Z,2.30
2023-01-21T10:55:56.740Z,2.30
2023-01-21T10:58:31.538Z,2.50
2023-01-21T11:01:03.152Z,2.40
2023-01-21T11:03:38.895Z,2.30
2023-01-21T11:06:09.335Z,2.30
2023-01-21T11:08:38.076Z,2.40
2023-01-21T11:11:09.992Z,2.40
2023-01-21T11:13:41.310Z,2.40
2023-01-21T11:16:10.555Z,2.40
2023-01-21T11:18:40.704Z,2.90
2023-01-21T11:21:18.667Z,2.40
2023-01-21T11:23:55.336Z,2.40
2023-01-21T11:26:28.272Z,2.30
2023-01-21T11:29:14.257Z,2.60
2023-01-21T11:31:44.239Z,2.70
2023-01-21T11:34:17.131Z,2.60
2023-01-21T11:37:00.097Z,2.80
2023-01-21T11:39:30.150Z,2.80
2023-01-21T11:42:03.756Z,2.80
2023-01-21T11:44:34.654Z,2.90
2023-01-21T11:47:02.843Z,2.90
2023-01-21T11:49:33.257Z,2.80
2023-01-21T11:52:19.016Z,2.90
2023-01-21T11:54:48.534Z,3.00
2023-01-21T11:57:32.616Z,3.00
2023-01-21T12:00:09.681Z,3.00
2023-01-21T12:02:45.071Z,3.00
2023-01-21T12:05:18.496Z,3.00
2023-01-21T12:07:51.208Z,3.20
2023-01-21T12:10:27.333Z,3.10
2023-01-21T12:13:16.344Z,3.20
2023-01-21T12:16:04.305Z,3.20
2023-01-21T12:18:51.064Z,3.10
2023-01-21T12:21:32.517Z,3.10
2023-01-21T12:24:11.954Z,3.10
2023-01-21T12:26:45.535Z,3.10
2023-01-21T12:29:36.356Z,2.80
2023-01-21T12:32:13.456Z,2.90
2023-01-21T12:34:46.362Z,3.00
2023-01-21T12:37:21.893Z,3.10
2023-01-21T12:39:52.218Z,3.10
2023-01-21T12:42:25.351Z,3.10
2023-01-21T12:44:56.232Z,2.50
2023-01-21T12:47:31.922Z,2.80
2023-01-21T12:50:11.765Z,3.00
2023-01-21T12:52:49.321Z,3.10
2023-01-21T12:55:22.086Z,3.20
2023-01-21T12:57:57.728Z,3.30
2023-01-21T13:00:28.903Z,3.20
2023-01-21T13:03:10.159Z,3.20
2023-01-21T13:05:47.486Z,3.30
2023-01-21T13:08:35.607Z,3.30
2023-01-21T13:11:12.913Z,3.30
2023-01-21T13:13:46.370Z,3.10
2023-01-21T13:16:14.955Z,3.10
2023-01-21T13:18:47.369Z,3.30
2023-01-21T13:21:23.387Z,3.20
2023-01-21T13:23:57.487Z,3.20
2023-01-21T13:26:33.554Z,3.30
2023-01-21T13:29:09.302Z,3.30
2023-01-21T13:31:45.156Z,3.30
2023-01-21T13:34:26.592Z,3.30
2023-01-21T13:37:04.101Z,3.30
2023-01-21T13:39:43.600Z,3.30
2023-01-21T13:42:34.031Z,3.30
2023-01-21T13:45:24.586Z,3.40
2023-01-21T13:48:16.520Z,3.50
2023-01-21T13:51:02.956Z,3.40
2023-01-21T13:53:43.332Z,3.40
2023-01-21T13:56:27.772Z,3.50
2023-01-21T13:59:00.728Z,3.50
2023-01-21T14:01:34.588Z,3.40
2023-01-21T14:04:10.123Z,3.40
2023-01-21T14:06:45.690Z,3.40
2023-01-21T14:09:21.301Z,3.50
2023-01-21T14:11:55.198Z,3.50
2023-01-21T14:14:44.901Z,3.60
2023-01-21T14:17:40.625Z,3.50
2023-01-21T14:20:37.032Z,3.60
2023-01-21T14:23:31.646Z,3.60
2023-01-21T14:26:31.971Z,3.50
2023-01-21T14:29:09.806Z,3.60
2023-01-21T14:31:43.273Z,3.70
2023-01-21T14:34:18.563Z,3.80
2023-01-21T14:36:55.285Z,3.80
2023-01-21T14:39:37.056Z,3.80
2023-01-21T14:42:10.922Z,3.80
2023-01-21T14:44:42.412Z,3.80
2023-01-21T14:47:46.264Z,3.80
2023-01-21T14:50:53.617Z,3.80
2023-01-21T14:53:25.203Z,3.90
2023-01-21T14:56:21.737Z,3.90
2023-01-21T14:58:53.235Z,3.90
2023-01-21T15:01:39.643Z,3.80
2023-01-21T15:04:20.404Z,3.90
2023-01-21T15:06:51.423Z,3.90
2023-01-21T15:09:23.928Z,3.90
2023-01-21T15:11:59.701Z,3.90
2023-01-21T15:14:30.747Z,3.90
2023-01-21T15:16:59.046Z,3.90
2023-01-21T15:19:32.622Z,3.90
2023-01-21T15:22:23.096Z,3.90
2023-01-21T15:25:20.651Z,3.90
2023-01-21T15:28:29.072Z,3.90
2023-01-21T15:31:02.648Z,3.90
2023-01-21T15:33:31.762Z,4.10
2023-01-21T15:36:04.267Z,4.10
2023-01-21T15:38:32.643Z,4.10
2023-01-21T15:41:03.862Z,4.10
2023-01-21T15:43:37.241Z,4.10
2023-01-21T15:46:20.087Z,4.10
2023-01-21T15:49:10.124Z,4.00
2023-01-21T15:51:48.190Z,4.00
2023-01-21T15:54:27.166Z,4.00
2023-01-21T15:57:02.168Z,3.90
2023-01-21T15:59:45.412Z,4.00
2023-01-21T16:02:21.856Z,4.00
2023-01-21T16:05:03.855Z,4.00
2023-01-21T16:07:41.996Z,4.00
2023-01-21T16:10:20.375Z,4.00
2023-01-21T16:12:57.060Z,4.10
2023-01-21T16:15:34.756Z,4.00
2023-01-21T16:18:12.978Z,4.00
2023-01-21T16:20:45.196Z,4.10
2023-01-21T16:23:17.164Z,4.10
2023-01-21T16:25:50.386Z,4.00
2023-01-21T16:28:21.827Z,4.00
2023-01-21T16:30:57.875Z,4.10
2023-01-21T16:33:27.617Z,4.00
2023-01-21T16:35:58.319Z,4.10
2023-01-21T16:38:27.962Z,4.10
2023-01-21T16:41:20.516Z,4.10
2023-01-21T16:43:50.211Z,4.10
2023-01-21T16:46:20.675Z,4.10
2023-01-21T16:48:53.545Z,4.10
2023-01-21T16:51:23.651Z,4.10
2023-01-21T16:53:54.326Z,4.10
2023-01-21T16:56:27.383Z,4.20
2023-01-21T16:58:56.815Z,4.20
2023-01-21T17:01:27.641Z,4.20
2023-01-21T17:04:01.202Z,4.20
2023-01-21T17:06:32.332Z,4.20
2023-01-21T17:09:05.103Z,4.20
2023-01-21T17:11:34.783Z,4.20
2023-01-21T17:14:09.766Z,4.20
2023-01-21T17:16:42.076Z,4.30
2023-01-21T17:19:29.611Z,4.20
2023-01-21T17:22:01.507Z,4.30
2023-01-21T17:24:33.124Z,4.20
2023-01-21T17:27:05.374Z,4.20
2023-01-21T17:29:35.286Z,4.20
2023-01-21T17:32:05.941Z,4.20
2023-01-21T17:34:37.789Z,4.20
2023-01-21T17:37:42.444Z,4.20
2023-01-21T17:40:25.495Z,4.20
2023-01-21T17:42:54.395Z,4.20
2023-01-21T17:45:30.551Z,4.30
2023-01-21T17:48:09.515Z,4.30
2023-01-21T17:50:47.369Z,4.30
2023-01-21T17:53:22.725Z,4.30
2023-01-21T17:55:59.744Z,4.30
2023-01-21T17:58:46.811Z,4.30
2023-01-21T18:01:15.975Z,4.30
2023-01-21T18:03:44.556Z,4.20
2023-01-21T18:06:19.206Z,4.30
2023-01-21T18:08:47.445Z,4.30
2023-01-21T18:11:17.350Z,4.30
2023-01-21T18:13:45.663Z,4.30
2023-01-21T18:16:14.220Z,4.20
2023-01-21T18:18:42.814Z,4.20
2023-01-21T18:21:20.001Z,4.30
2023-01-21T18:23:48.869Z,4.30
2023-01-21T18:26:24.422Z,4.30
2023-01-21T18:28:52.634Z,4.20
2023-01-21T18:31:21.274Z,4.30
2023-01-21T18:33:49.714Z,4.40
2023-01-21T18:36:19.210Z,4.30
2023-01-21T18:38:47.462Z,4.20
2023-01-21T18:41:15.670Z,4.20
2023-01-21T18:43:43.842Z,4.10
2023-01-21T18:46:13.903Z,4.10
2023-01-21T18:48:43.077Z,4.20
2023-01-21T18:51:13.299Z,4.20
2023-01-21T18:53:42.963Z,4.20
2023-01-21T18:56:14.678Z,4.20
2023-01-21T18:58:43.293Z,4.20
2023-01-21T19:01:22.727Z,4.20
2023-01-21T19:03:53.778Z,4.10
2023-01-21T19:06:23.551Z,4.10
2023-01-21T19:08:55.131Z,4.20
2023-01-21T19:11:23.542Z,4.10
2023-01-21T19:13:51.760Z,4.20
2023-01-21T19:16:21.659Z,4.20
2023-01-21T19:18:49.910Z,4.20
2023-01-21T19:21:18.270Z,4.30
2023-01-21T19:23:46.601Z,4.40
2023-01-21T19:26:16.748Z,4.40
2023-01-21T19:28:44.886Z,4.30
2023-01-21T19:31:13.238Z,4.50
2023-01-21T19:33:45.460Z,4.60
2023-01-21T19:36:16.661Z,4.70
2023-01-21T19:38:52.275Z,4.80
2023-01-21T19:41:22.182Z,4.80
2023-01-21T19:43:50.431Z,4.80
2023-01-21T19:46:18.787Z,4.80
2023-01-21T19:48:50.026Z,4.70
2023-01-21T19:51:18.409Z,4.90
2023-01-21T19:53:46.618Z,4.90
2023-01-21T19:56:21.753Z,4.80
2023-01-21T19:58:52.026Z,4.70
2023-01-21T20:01:20.316Z,4.80
2023-01-21T20:03:59.620Z,4.90
2023-01-21T20:06:31.092Z,4.90
2023-01-21T20:09:01.122Z,4.90
2023-01-21T20:11:29.379Z,4.70
2023-01-21T20:13:59.032Z,4.80
2023-01-21T20:16:27.544Z,4.70
2023-01-21T20:18:56.398Z,4.90
2023-01-21T20:21:24.684Z,4.80
2023-01-21T20:23:52.926Z,4.80
2023-01-21T20:26:25.762Z,4.90
2023-01-21T20:28:54.693Z,5.00
2023-01-21T20:31:24.454Z,4.90
2023-01-21T20:33:52.843Z,4.60
2023-01-21T20:36:22.886Z,4.80
2023-01-21T20:38:51.969Z,4.90
2023-01-21T20:41:20.200Z,4.90
2023-01-21T20:43:48.677Z,4.80
2023-01-21T20:46:20.221Z,4.80
2023-01-21T20:48:51.716Z,4.90
2023-01-21T20:51:21.108Z,4.90
2023-01-21T20:53:49.331Z,5.00
2023-01-21T20:56:20.505Z,5.00
2023-01-21T20:58:48.940Z,4.90
2023-01-21T21:01:18.818Z,4.80
2023-01-21T21:03:47.516Z,4.90
2023-01-21T21:06:19.075Z,4.80
2023-01-21T21:08:47.603Z,4.90
2023-01-21T21:11:16.404Z,4.90
2023-01-21T21:13:46.951Z,5.00
2023-01-21T21:16:23.472Z,5.00
2023-01-21T21:18:52.242Z,5.00
2023-01-21T21:21:23.800Z,4.90
2023-01-21T21:23:52.911Z,4.90
2023-01-21T21:26:23.706Z,5.10
2023-01-21T21:28:54.936Z,5.00
2023-01-21T21:31:24.641Z,5.10
2023-01-21T21:33:53.335Z,5.20
2023-01-21T21:36:24.947Z,5.10
2023-01-21T21:38:55.760Z,5.00
2023-01-21T21:41:43.380Z,5.10
2023-01-21T21:44:12.281Z,5.00
2023-01-21T21:46:58.662Z,5.00
2023-01-21T21:49:27.244Z,5.10
2023-01-21T21:51:57.072Z,5.00
2023-01-21T21:54:25.399Z,5.00
2023-01-21T21:56:53.644Z,4.80
2023-01-21T21:59:23.510Z,4.80
2023-01-21T22:01:52.079Z,5.00
2023-01-21T22:04:21.354Z,5.10
2023-01-21T22:06:49.750Z,5.20
2023-01-21T22:09:19.415Z,5.10
2023-01-21T22:11:47.540Z,5.10
2023-01-21T22:14:18.135Z,5.10
2023-01-21T22:16:46.556Z,5.10
2023-01-21T22:19:14.990Z,5.20
2023-01-21T22:21:43.209Z,5.10
2023-01-21T22:24:11.606Z,5.10
2023-01-21T22:26:41.294Z,5.10
2023-01-21T22:29:09.442Z,5.00
2023-01-21T22:31:37.782Z,5.00
2023-01-21T22:34:06.281Z,5.00
2023-01-21T22:36:34.875Z,5.10
2023-01-21T22:39:03.337Z,5.10
2023-01-21T22:43:04.788Z,5.00
2023-01-21T23:03:33.414Z,5.10
2023-01-21T23:32:50.113Z,5.00
2023-01-21T23:36:22.619Z,5.00
2023-01-21T23:36:57.027Z,5.00
2023-01-21T23:40:28.208Z,5.00
2023-01-21T23:52:20.328Z,4.90
